createdAt,value
2023-10-18T00:01:58.719Z,78.40
2023-10-18T00:04:25.426Z,78.77
2023-10-18T00:06:55.275Z,78.89
2023-10-18T00:09:41.586Z,78.96
2023-10-18T00:12:08.785Z,79.13
2023-10-18T00:14:36.169Z,79.05
2023-10-18T00:17:02.884Z,79.32
2023-10-18T00:19:29.895Z,79.43
2023-10-18T00:21:56.793Z,79.28
2023-10-18T00:24:23.591Z,79.08
2023-10-18T00:26:52.025Z,79.08
2023-10-18T00:29:18.717Z,79.06
2023-10-18T00:31:45.321Z,78.93
2023-10-18T00:34:12.892Z,79.09
2023-10-18T00:36:40.843Z,79.15
2023-10-18T00:39:42.939Z,78.80
2023-10-18T00:42:28.773Z,78.92
2023-10-18T00:45:09.756Z,78.79
2023-10-18T00:47:36.613Z,78.78
2023-10-18T00:50:04.375Z,79.02
2023-10-18T00:52:31.233Z,79.31
2023-10-18T00:54:58.479Z,79.36
2023-10-18T00:57:35.774Z,79.14
2023-10-18T01:00:13.432Z,79.42
2023-10-18T01:02:44.709Z,79.33
2023-10-18T01:05:16.471Z,79.60
2023-10-18T01:07:43.900Z,79.45
2023-10-18T01:10:13.042Z,79.69
2023-10-18T01:12:39.840Z,79.83
2023-10-18T01:15:07.596Z,79.94
2023-10-18T01:17:36.811Z,79.85
2023-10-18T01:20:26.563Z,79.77
2023-10-18T01:22:53.200Z,79.59
2023-10-18T01:25:19.973Z,79.30
2023-10-18T01:27:46.757Z,79.51
2023-10-18T01:30:17.557Z,79.65
2023-10-18T01:32:44.810Z,79.50
2023-10-18T01:35:16.129Z,79.70
2023-10-18T01:37:44.104Z,79.83
2023-10-18T01:40:22.029Z,79.83
2023-10-18T01:42:58.763Z,79.77
2023-10-18T01:45:37.789Z,79.59
2023-10-18T01:48:10.830Z,79.76
2023-10-18T01:50:39.824Z,79.63
2023-10-18T01:53:16.279Z,79.72
2023-10-18T01:55:47.676Z,80.04
2023-10-18T01:58:14.580Z,79.82
2023-10-18T02:00:42.627Z,80.00
2023-10-18T02:03:13.311Z,79.91
2023-10-18T02:05:44.008Z,79.88
2023-10-18T02:08:12.203Z,79.69
2023-10-18T02:10:41.423Z,79.75
2023-10-18T02:13:14.419Z,79.68
2023-10-18T02:15:41.566Z,79.74
2023-10-18T02:18:09.358Z,79.73
2023-10-18T02:20:38.540Z,79.65
2023-10-18T02:23:11.672Z,79.52
2023-10-18T02:25:44.936Z,79.77
2023-10-18T02:28:27.852Z,79.86
2023-10-18T02:31:11.004Z,79.69
2023-10-18T02:33:37.681Z,79.72
2023-10-18T02:36:28.175Z,79.86
2023-10-18T02:38:55.150Z,79.84
2023-10-18T02:41:21.848Z,79.93
2023-10-18T02:43:51.752Z,80.03
2023-10-18T02:46:21.670Z,79.88
2023-10-18T02:48:50.934Z,79.97
2023-10-18T02:51:22.808Z,79.90
2023-10-18T02:53:51.893Z,80.09
2023-10-18T02:56:21.273Z,79.96
2023-10-18T02:58:48.650Z,80.03
2023-10-18T03:01:15.485Z,79.94
2023-10-18T03:03:47.193Z,80.04
2023-10-18T03:06:14.706Z,80.05
2023-10-18T03:08:49.810Z,80.00
2023-10-18T03:11:20.902Z,79.83
2023-10-18T03:13:51.873Z,79.86
2023-10-18T03:16:39.375Z,79.96
2023-10-18T03:19:13.128Z,79.98
2023-10-18T03:21:48.653Z,80.13
2023-10-18T03:24:15.450Z,80.09
2023-10-18T03:26:43.858Z,79.92
2023-10-18T03:29:13.174Z,79.97
2023-10-18T03:31:44.835Z,79.87
2023-10-18T03:34:23.087Z,79.64
2023-10-18T03:36:49.707Z,79.92
2023-10-18T03:39:16.428Z,79.90
2023-10-18T03:41:50.469Z,79.89
2023-10-18T03:44:32.969Z,80.07
2023-10-18T03:47:12.474Z,80.26
2023-10-18T03:49:39.371Z,80.26
2023-10-18T03:52:27.040Z,80.33
2023-10-18T03:54:56.532Z,80.49
2023-10-18T03:57:29.745Z,80.58
2023-10-18T03:59:59.208Z,80.70
2023-10-18T04:02:26.185Z,80.91
2023-10-18T04:04:58.934Z,81.02
2023-10-18T04:07:27.307Z,81.20
2023-10-18T04:09:54.604Z,81.33
2023-10-18T04:12:22.746Z,81.32
2023-10-18T04:14:53.120Z,81.06
2023-10-18T04:17:35.513Z,81.76
2023-10-18T04:20:12.905Z,81.99
2023-10-18T04:22:39.436Z,81.96
2023-10-18T04:25:14.894Z,81.97
2023-10-18T04:27:43.139Z,82.00
2023-10-18T04:30:12.976Z,81.77
2023-10-18T04:32:39.907Z,81.62
2023-10-18T04:35:11.177Z,81.71
2023-10-18T04:37:38.121Z,81.72
2023-10-18T04:40:07.219Z,81.59
2023-10-18T04:42:34.125Z,81.54
2023-10-18T04:45:16.766Z,81.42
2023-10-18T04:47:43.470Z,81.45
2023-10-18T04:50:12.836Z,81.36
2023-10-18T04:52:42.651Z,81.52
2023-10-18T04:55:15.255Z,81.25
2023-10-18T04:57:42.509Z,81.26
2023-10-18T05:00:35.230Z,81.22
2023-10-18T05:03:08.260Z,81.10
2023-10-18T05:05:44.974Z,81.19
2023-10-18T05:08:17.354Z,81.09
2023-10-18T05:10:47.262Z,81.13
2023-10-18T05:13:34.347Z,81.19
2023-10-18T05:16:02.382Z,81.12
2023-10-18T05:18:30.835Z,81.22
2023-10-18T05:20:58.835Z,81.10
2023-10-18T05:23:33.367Z,81.01
2023-10-18T05:26:09.501Z,81.22
2023-10-18T05:29:01.660Z,81.31
2023-10-18T05:31:47.090Z,81.31
2023-10-18T05:34:17.005Z,81.28
2023-10-18T05:36:46.492Z,81.32
2023-10-18T05:39:26.156Z,81.53
2023-10-18T05:42:00.601Z,81.80
2023-10-18T05:44:30.145Z,82.47
2023-10-18T05:46:57.824Z,82.72
2023-10-18T05:49:26.723Z,82.96
2023-10-18T05:52:15.389Z,83.35
2023-10-18T05:54:44.341Z,83.91
2023-10-18T05:57:16.566Z,84.13
2023-10-18T05:59:46.684Z,84.32
2023-10-18T06:02:23.655Z,84.81
2023-10-18T06:04:52.375Z,85.27
2023-10-18T06:07:23.720Z,85.41
2023-10-18T06:09:56.424Z,85.64
2023-10-18T06:12:24.193Z,85.97
2023-10-18T06:14:54.435Z,86.07
2023-10-18T06:17:27.425Z,86.06
2023-10-18T06:19:57.281Z,86.23
2023-10-18T06:22:29.950Z,86.60
2023-10-18T06:25:01.429Z,86.74
2023-10-18T06:27:30.505Z,86.55
2023-10-18T06:29:56.981Z,86.32
2023-10-18T06:32:25.676Z,86.32
2023-10-18T06:34:58.226Z,86.30
2023-10-18T06:37:25.500Z,86.18
2023-10-18T06:39:58.976Z,85.98
2023-10-18T06:42:27.636Z,85.74
2023-10-18T06:44:56.083Z,85.57
2023-10-18T06:47:31.430Z,85.36
2023-10-18T06:50:11.741Z,85.20
2023-10-18T06:52:53.218Z,85.08
2023-10-18T06:55:22.060Z,84.91
2023-10-18T06:57:50.466Z,84.67
2023-10-18T07:00:17.267Z,84.50
2023-10-18T07:02:45.260Z,84.23
2023-10-18T07:05:16.828Z,84.17
2023-10-18T07:07:43.393Z,83.98
2023-10-18T07:10:20.755Z,84.03
2023-10-18T07:12:53.004Z,83.78
2023-10-18T07:15:23.609Z,83.69
2023-10-18T07:17:52.713Z,83.53
2023-10-18T07:20:21.807Z,83.28
2023-10-18T07:22:55.336Z,82.96
2023-10-18T07:25:29.743Z,82.55
2023-10-18T07:27:57.318Z,82.18
2023-10-18T07:30:39.314Z,81.81
2023-10-18T07:33:12.796Z,81.47
2023-10-18T07:35:44.897Z,81.09
2023-10-18T07:38:11.835Z,80.70
2023-10-18T07:40:44.787Z,80.59
2023-10-18T07:43:15.585Z,80.47
2023-10-18T07:45:47.625Z,80.31
2023-10-18T07:48:17.427Z,79.83
2023-10-18T07:50:45.608Z,79.69
2023-10-18T07:53:12.273Z,78.90
2023-10-18T07:55:43.093Z,78.48
2023-10-18T07:58:22.801Z,78.12
2023-10-18T08:01:11.142Z,77.21
2023-10-18T08:03:39.084Z,76.54
2023-10-18T08:06:09.225Z,76.38
2023-10-18T08:08:42.479Z,76.02
2023-10-18T08:11:12.718Z,75.39
2023-10-18T08:13:48.423Z,74.62
2023-10-18T08:16:21.220Z,74.34
2023-10-18T08:18:53.710Z,73.93
2023-10-18T08:21:26.981Z,73.30
2023-10-18T08:23:57.851Z,72.55
2023-10-18T08:26:27.445Z,72.85
2023-10-18T08:28:54.460Z,72.02
2023-10-18T08:31:35.220Z,70.78
2023-10-18T08:34:06.506Z,71.00
2023-10-18T08:36:33.445Z,70.23
2023-10-18T08:39:02.235Z,70.33
2023-10-18T08:41:33.890Z,70.88
2023-10-18T08:44:16.756Z,70.89
2023-10-18T08:46:52.911Z,70.21
2023-10-18T08:49:23.106Z,69.46
2023-10-18T08:52:11.954Z,68.15
2023-10-18T08:54:43.159Z,68.32
2023-10-18T08:57:11.738Z,68.02
2023-10-18T08:59:52.484Z,67.72
2023-10-18T09:02:22.302Z,67.78
2023-10-18T09:04:56.594Z,68.43
2023-10-18T09:07:43.268Z,68.36
2023-10-18T09:10:33.861Z,67.42
2023-10-18T09:13:12.160Z,67.15
2023-10-18T09:15:59.588Z,67.50
2023-10-18T09:18:31.752Z,67.11
2023-10-18T09:21:08.018Z,65.45
2023-10-18T09:23:35.236Z,65.39
2023-10-18T09:26:14.904Z,65.58
2023-10-18T09:28:42.372Z,65.59
2023-10-18T09:31:18.557Z,65.10
2023-10-18T09:33:50.919Z,65.80
2023-10-18T09:36:26.202Z,64.87
2023-10-18T09:38:54.874Z,65.40
2023-10-18T09:41:21.876Z,65.35
2023-10-18T09:43:50.426Z,65.10
2023-10-18T09:46:17.459Z,63.57
2023-10-18T09:48:46.601Z,63.09
2023-10-18T09:51:15.738Z,63.78
2023-10-18T09:53:44.225Z,64.20
2023-10-18T09:56:13.535Z,62.77
2023-10-18T09:58:51.589Z,62.74
2023-10-18T10:01:31.937Z,62.66
2023-10-18T10:04:06.869Z,62.31
2023-10-18T10:06:36.101Z,62.27
2023-10-18T10:09:12.034Z,61.14
2023-10-18T10:11:46.713Z,60.93
2023-10-18T10:14:22.029Z,61.42
2023-10-18T10:17:06.326Z,60.96
2023-10-18T10:19:44.043Z,60.89
2023-10-18T10:22:40.984Z,60.37
2023-10-18T10:25:28.358Z,60.92
2023-10-18T10:28:15.282Z,59.97
2023-10-18T10:30:45.076Z,59.62
2023-10-18T10:33:14.667Z,60.66
2023-10-18T10:35:45.910Z,61.35
2023-10-18T10:38:20.037Z,61.80
2023-10-18T10:41:11.855Z,61.21
2023-10-18T10:44:07.267Z,60.63
2023-10-18T10:46:40.548Z,60.90
2023-10-18T10:49:45.564Z,60.43
2023-10-18T10:52:19.241Z,59.03
2023-10-18T10:54:53.950Z,59.60
2023-10-18T10:57:22.414Z,59.52
2023-10-18T10:59:52.842Z,59.79
2023-10-18T11:02:30.558Z,59.56
2023-10-18T11:04:59.962Z,60.56
2023-10-18T11:07:28.510Z,59.36
2023-10-18T11:10:07.055Z,58.57
2023-10-18T11:12:33.974Z,59.96
2023-10-18T11:15:02.089Z,60.40
2023-10-18T11:17:30.044Z,60.27
2023-10-18T11:20:11.285Z,59.66
2023-10-18T11:22:42.057Z,58.83
2023-10-18T11:25:14.412Z,59.16
2023-10-18T11:27:41.224Z,59.83
2023-10-18T11:30:17.751Z,59.05
2023-10-18T11:32:47.393Z,59.09
2023-10-18T11:35:19.790Z,58.61
2023-10-18T11:37:48.327Z,58.93
2023-10-18T11:40:22.492Z,58.61
2023-10-18T11:43:05.485Z,57.63
2023-10-18T11:45:37.463Z,58.20
2023-10-18T11:48:10.327Z,57.90
2023-10-18T11:50:46.033Z,57.94
2023-10-18T11:53:14.624Z,58.02
2023-10-18T11:55:56.870Z,58.88
2023-10-18T11:58:24.585Z,58.26
2023-10-18T12:00:56.661Z,57.89
2023-10-18T12:03:24.244Z,57.65
2023-10-18T12:05:50.942Z,57.40
2023-10-18T12:08:18.277Z,56.69
2023-10-18T12:10:45.218Z,57.25
2023-10-18T12:13:14.362Z,56.61
2023-10-18T12:15:41.097Z,56.28
2023-10-18T12:18:10.129Z,56.05
2023-10-18T12:20:46.068Z,56.41
2023-10-18T12:23:16.639Z,57.58
2023-10-18T12:25:44.311Z,56.55
2023-10-18T12:28:18.475Z,56.57
2023-10-18T12:30:53.129Z,57.59
2023-10-18T12:33:24.421Z,57.55
2023-10-18T12:35:52.614Z,57.16
2023-10-18T12:38:32.313Z,57.22
2023-10-18T12:41:01.606Z,56.43
2023-10-18T12:43:32.853Z,55.70
2023-10-18T12:46:04.436Z,55.73
2023-10-18T12:48:32.052Z,55.76
2023-10-18T12:51:03.955Z,56.06
2023-10-18T12:53:30.523Z,55.69
2023-10-18T12:56:17.877Z,55.65
2023-10-18T12:59:11.717Z,54.67
2023-10-18T13:01:39.022Z,55.19
2023-10-18T13:04:09.052Z,54.26
2023-10-18T13:06:36.187Z,54.58
2023-10-18T13:09:15.717Z,54.19
2023-10-18T13:11:53.146Z,54.59
2023-10-18T13:14:25.137Z,54.34
2023-10-18T13:16:56.753Z,54.24
2023-10-18T13:19:28.466Z,54.78
2023-10-18T13:21:55.943Z,54.77
2023-10-18T13:24:22.894Z,54.26
2023-10-18T13:26:55.127Z,54.84
2023-10-18T13:29:22.261Z,54.90
2023-10-18T13:31:51.390Z,54.50
2023-10-18T13:34:22.211Z,54.65
2023-10-18T13:36:50.630Z,54.14
2023-10-18T13:39:18.677Z,54.16
2023-10-18T13:41:52.783Z,54.54
2023-10-18T13:44:22.967Z,54.49
2023-10-18T13:47:12.174Z,54.69
2023-10-18T13:49:42.373Z,54.94
2023-10-18T13:52:09.440Z,54.85
2023-10-18T13:54:37.128Z,55.20
2023-10-18T13:57:05.266Z,55.13
2023-10-18T13:59:34.289Z,54.89
2023-10-18T14:02:01.261Z,54.32
2023-10-18T14:04:29.528Z,55.18
2023-10-18T14:06:58.456Z,55.41
2023-10-18T14:09:25.493Z,54.46
2023-10-18T14:11:52.559Z,54.34
2023-10-18T14:14:20.515Z,54.43
2023-10-18T14:16:47.284Z,55.12
2023-10-18T14:19:19.361Z,55.29
2023-10-18T14:21:48.882Z,54.99
2023-10-18T14:24:17.945Z,52.98
2023-10-18T14:26:44.985Z,50.79
2023-10-18T14:29:12.362Z,48.92
2023-10-18T14:31:39.286Z,47.06
2023-10-18T14:34:06.083Z,46.47
2023-10-18T14:36:50.976Z,46.32
2023-10-18T14:39:35.727Z,47.23
2023-10-18T14:42:07.481Z,47.49
2023-10-18T14:44:34.207Z,48.18
2023-10-18T14:47:00.866Z,49.17
2023-10-18T14:49:28.882Z,50.39
2023-10-18T14:51:55.516Z,51.01
2023-10-18T14:54:22.349Z,51.68
2023-10-18T14:56:50.444Z,52.15
2023-10-18T14:59:17.125Z,52.70
2023-10-18T15:01:43.720Z,53.00
2023-10-18T15:04:10.289Z,53.77
2023-10-18T15:06:38.011Z,54.28
2023-10-18T15:09:04.758Z,54.93
2023-10-18T15:11:31.496Z,55.19
2023-10-18T15:13:59.305Z,55.92
2023-10-18T15:16:26.124Z,56.66
2023-10-18T15:18:52.793Z,57.71
2023-10-18T15:21:19.496Z,58.07
2023-10-18T15:23:46.294Z,58.57
2023-10-18T15:26:26.088Z,59.07
2023-10-18T15:28:52.835Z,59.29
2023-10-18T15:31:20.584Z,59.73
2023-10-18T15:33:47.244Z,60.06
2023-10-18T15:36:22.602Z,60.68
2023-10-18T15:38:51.198Z,60.96
2023-10-18T15:41:21.825Z,61.25
2023-10-18T15:43:55.165Z,61.50
2023-10-18T15:46:25.954Z,61.85
2023-10-18T15:48:53.986Z,62.02
2023-10-18T15:51:22.798Z,62.40
2023-10-18T15:53:57.122Z,62.59
2023-10-18T15:56:26.285Z,62.84
2023-10-18T15:58:56.258Z,63.21
2023-10-18T16:01:23.861Z,63.40
2023-10-18T16:03:51.962Z,63.91
2023-10-18T16:06:19.970Z,64.04
2023-10-18T16:08:47.596Z,64.05
2023-10-18T16:11:15.007Z,64.48
2023-10-18T16:13:41.944Z,64.91
2023-10-18T16:16:11.024Z,64.89
2023-10-18T16:18:39.935Z,65.53
2023-10-18T16:21:11.320Z,65.56
2023-10-18T16:23:40.604Z,65.69
2023-10-18T16:26:11.640Z,65.79
2023-10-18T16:28:39.164Z,66.02
2023-10-18T16:31:11.066Z,66.13
2023-10-18T16:33:40.867Z,66.26
2023-10-18T16:36:14.501Z,66.26
2023-10-18T16:38:41.704Z,66.64
2023-10-18T16:41:12.385Z,66.64
2023-10-18T16:43:39.363Z,66.93
2023-10-18T16:46:07.178Z,67.19
2023-10-18T16:48:35.700Z,67.37
2023-10-18T16:51:06.749Z,67.18
2023-10-18T16:53:38.310Z,67.36
2023-10-18T16:56:05.681Z,67.56
2023-10-18T16:58:32.871Z,67.50
2023-10-18T17:01:01.069Z,67.61
2023-10-18T17:03:30.664Z,67.91
2023-10-18T17:05:59.410Z,67.94
2023-10-18T17:08:27.147Z,68.28
2023-10-18T17:10:55.614Z,68.31
2023-10-18T17:13:26.901Z,68.58
2023-10-18T17:15:56.435Z,68.59
2023-10-18T17:18:23.945Z,69.00
2023-10-18T17:21:06.608Z,68.63
2023-10-18T17:23:43.190Z,68.86
2023-10-18T17:26:19.435Z,68.98
2023-10-18T17:28:50.370Z,69.07
2023-10-18T17:31:21.782Z,69.11
2023-10-18T17:33:53.349Z,69.24
2023-10-18T17:36:26.041Z,69.40
2023-10-18T17:38:52.860Z,69.44
2023-10-18T17:41:19.582Z,69.70
2023-10-18T17:43:47.600Z,69.60
2023-10-18T17:46:15.576Z,69.58
2023-10-18T17:48:42.312Z,70.01
2023-10-18T17:51:09.387Z,70.38
2023-10-18T17:53:37.114Z,70.14
2023-10-18T17:56:07.308Z,70.24
2023-10-18T17:58:42.115Z,70.12
2023-10-18T18:01:21.325Z,70.50
2023-10-18T18:03:50.208Z,70.46
2023-10-18T18:06:16.866Z,70.69
2023-10-18T18:08:43.637Z,70.65
2023-10-18T18:11:12.232Z,70.55
2023-10-18T18:13:42.690Z,70.62
2023-10-18T18:16:09.288Z,70.84
2023-10-18T18:18:35.941Z,70.82
2023-10-18T18:21:02.664Z,70.81
2023-10-18T18:23:29.436Z,71.26
2023-10-18T18:26:05.909Z,71.03
2023-10-18T18:28:33.510Z,71.08
2023-10-18T18:31:00.351Z,71.36
2023-10-18T18:33:28.209Z,71.42
2023-10-18T18:35:54.770Z,71.41
2023-10-18T18:38:21.629Z,71.65
2023-10-18T18:40:50.287Z,71.92
2023-10-18T18:43:17.342Z,71.95
2023-10-18T18:45:44.612Z,71.93
2023-10-18T18:48:14.666Z,71.72
2023-10-18T18:50:41.441Z,71.76
2023-10-18T18:53:08.181Z,71.73
2023-10-18T18:55:35.001Z,71.71
2023-10-18T18:58:01.701Z,71.75
2023-10-18T19:00:28.309Z,71.76
2023-10-18T19:02:57.109Z,72.01
2023-10-18T19:05:24.952Z,72.13
2023-10-18T19:07:55.267Z,71.93
2023-10-18T19:10:22.242Z,71.89
2023-10-18T19:12:51.552Z,72.12
2023-10-18T19:15:20.895Z,71.94
2023-10-18T19:17:50.058Z,72.10
2023-10-18T19:20:18.474Z,72.27
2023-10-18T19:22:50.099Z,72.23
2023-10-18T19:25:20.404Z,72.28
2023-10-18T19:27:49.097Z,72.28
2023-10-18T19:30:21.012Z,72.32
2023-10-18T19:32:48.756Z,72.18
2023-10-18T19:35:15.961Z,72.31
2023-10-18T19:37:43.714Z,72.23
2023-10-18T19:40:13.605Z,72.56
2023-10-18T19:42:42.049Z,72.37
2023-10-18T19:45:11.528Z,72.37
2023-10-18T19:47:38.498Z,72.42
2023-10-18T19:50:07.112Z,72.31
2023-10-18T19:52:33.696Z,72.72
2023-10-18T19:55:00.468Z,72.50
2023-10-18T19:57:27.233Z,72.58
2023-10-18T19:59:54.693Z,72.46
2023-10-18T20:02:21.462Z,72.63
2023-10-18T20:04:48.307Z,72.78
2023-10-18T20:07:18.053Z,72.66
2023-10-18T20:09:44.961Z,72.83
2023-10-18T20:12:12.204Z,72.61
2023-10-18T20:14:39.220Z,72.65
2023-10-18T20:17:06.054Z,72.60
2023-10-18T20:19:32.826Z,72.71
2023-10-18T20:21:59.580Z,72.75
2023-10-18T20:24:26.250Z,73.00
2023-10-18T20:26:52.895Z,72.75
2023-10-18T20:29:20.227Z,72.77
2023-10-18T20:31:47.186Z,73.01
2023-10-18T20:34:13.857Z,73.02
2023-10-18T20:36:40.881Z,73.18
2023-10-18T20:39:10.154Z,73.60
2023-10-18T20:41:40.208Z,73.40
2023-10-18T20:44:19.611Z,73.09
2023-10-18T20:46:50.888Z,73.07
2023-10-18T20:49:18.296Z,73.15
2023-10-18T20:51:57.560Z,73.11
2023-10-18T20:54:25.761Z,73.03
2023-10-18T20:57:10.850Z,73.04
2023-10-18T20:59:39.338Z,73.06
2023-10-18T21:02:15.278Z,72.95
2023-10-18T21:04:45.325Z,73.14
2023-10-18T21:07:12.420Z,73.14
2023-10-18T21:09:41.736Z,72.99
2023-10-18T21:12:08.360Z,73.03
2023-10-18T21:14:35.085Z,73.00
2023-10-18T21:17:01.693Z,73.23
2023-10-18T21:19:28.720Z,73.15
2023-10-18T21:21:55.751Z,73.05
2023-10-18T21:24:22.644Z,73.09
2023-10-18T21:26:49.504Z,73.09
2023-10-18T21:29:16.462Z,73.09
2023-10-18T21:31:43.924Z,73.20
2023-10-18T21:34:10.852Z,73.11
2023-10-18T21:36:37.557Z,73.13
2023-10-18T21:39:06.754Z,73.18
2023-10-18T21:41:35.385Z,73.22
2023-10-18T21:44:02.097Z,73.19
2023-10-18T21:46:28.687Z,73.15
2023-10-18T21:48:57.061Z,73.31
2023-10-18T21:51:24.378Z,73.42
2023-10-18T21:53:52.577Z,73.30
2023-10-18T21:56:19.384Z,73.29
2023-10-18T21:58:47.514Z,73.38
2023-10-18T22:01:33.835Z,73.54
2023-10-18T22:04:03.825Z,73.34
2023-10-18T22:06:30.425Z,73.37
2023-10-18T22:09:06.292Z,73.41
2023-10-18T22:11:35.655Z,73.38
2023-10-18T22:14:18.137Z,73.51
2023-10-18T22:16:56.976Z,73.45
2023-10-18T22:19:30.428Z,73.48
2023-10-18T22:21:57.477Z,73.42
2023-10-18T22:24:30.147Z,73.46
2023-10-18T22:26:57.724Z,73.43
2023-10-18T22:29:28.043Z,73.71
2023-10-18T22:32:00.018Z,73.87
2023-10-18T22:34:40.345Z,73.78
2023-10-18T22:37:06.868Z,73.84
2023-10-18T22:39:34.433Z,73.68
2023-10-18T22:42:08.985Z,73.93
2023-10-18T22:44:38.746Z,73.76
2023-10-18T22:47:07.399Z,73.96
2023-10-18T22:49:42.011Z,74.03
2023-10-18T22:52:23.333Z,74.21
2023-10-18T22:54:51.559Z,74.10
2023-10-18T22:57:35.822Z,73.94
2023-10-18T23:00:13.387Z,73.99
2023-10-18T23:02:43.508Z,74.00
2023-10-18T23:05:29.446Z,74.00
2023-10-18T23:07:57.983Z,74.15
2023-10-18T23:10:46.260Z,73.97
2023-10-18T23:13:32.972Z,73.93
2023-10-18T23:16:00.067Z,73.91
2023-10-18T23:18:33.768Z,74.13
2023-10-18T23:21:13.858Z,73.97
2023-10-18T23:23:55.206Z,73.92
2023-10-18T23:26:41.806Z,73.94
2023-10-18T23:29:15.062Z,74.04
2023-10-18T23:31:54.459Z,73.98
2023-10-18T23:34:24.083Z,73.93
2023-10-18T23:36:57.612Z,73.98
2023-10-18T23:39:28.653Z,74.21
2023-10-18T23:42:10.216Z,74.45
2023-10-18T23:44:55.172Z,74.49
2023-10-18T23:47:42.183Z,74.20
2023-10-18T23:50:29.884Z,74.22
2023-10-18T23:53:19.486Z,74.29
2023-10-18T23:55:55.239Z,74.27
2023-10-18T23:58:31.615Z,74.32
